Wisner, NE (68791)

9:12 AM CDT on May 29, 2015 (GMT -0500)
West Point Public Schools Alternative Energy Building | | Change Station
CLOSE
Current Station
Personal Weather Station
Location: West Point, NE
Elevation: 1575 ft
Nearby Weather Stations

Elev 1575 ft 41.84 °N, 96.69 °W | Updated 43 seconds ago

Overcast
Overcast
65.0 °F
Feels Like 65.0 °F
N
8.0
Wind Variable Wind from SW
Gusts 9.0 mph

Today
High -- | Low -- °F
--% Chance of Precip.
Yesterday
High -- | Low -- °F
Precip. -- in
5:56 AM 8:54 PM
Waxing Gibbous, 84% visible
Pressure 29.92 in
Visibility 10.0 miles
Clouds Scattered Clouds 6000 ft
Mostly Cloudy 8000 ft
Overcast 8500 ft
Dew Point 62 °F
Humidity 89%
Rainfall 0.17 in
Snow Depth Not available.
UV 1 out of 12
Pollen 1.20 out of 12
Air Quality Not available.
Flu Activity No Activity
METAR KLCG 291355Z AUTO 23004KT 10SM -DZ SCT060 BKN080 OVC085 18/16 A2992 RMK AO2 T01750160

More Conditions Fewer Conditions

Pressure 29.92 in
Visibility 10.0 miles
Clouds Scattered Clouds 6000 ft
Mostly Cloudy 8000 ft
Overcast 8500 ft
Dew Point 62 °F
Humidity 89%
Rainfall 0.17 in
Snow Depth Not available.
UV 1 out of 12
Pollen 1.20 out of 12
Air Quality Not available.
Flu Activity No Activity
METAR KLCG 291355Z AUTO 23004KT 10SM -DZ SCT060 BKN080 OVC085 18/16 A2992 RMK AO2 T01750160

More Conditions Fewer Conditions

10-Day Weather Forecast

Almanac

Astronomy

May. 29, 2015 Rise Set
Actual Time
Civil Twilight
Nautical Twilight
Astronomical Twilight
Moon
Length of Visible Light
Length of Day
Tomorrow will be .
, % of the Moon is Illuminated

Today's Extremes

State Highs State Lows

Community

WunderPhotos

Upload Photos

1,825,275 photos uploaded!

WunderBlogs® & News

Nearby

Air Quality

  Air Quality AQ Index Pollutant
Not available.

Snow Depth

Station Depth Elevation

Earthquake Activity

City Distance Mag. Time & Date
Minimum magnitude displayed is 2.5.

Coastal Water Temperatures

Place Temperature

Stations

Nearby Weather Stations

Station Location Temp. Windchill Dew Point Humidity Wind Precip. Elev Updated Type